AXM531 WSSS-WMKP
Flight info
| Callsign | AXM531 |
|---|---|
| Flight time | 1h 1m |
| Altitude | 38000 |
| Route | AROSO3A AROSO Y513 KALIL Y504 BILIK Y506 TEPUS GORVU1F |
| Aircraft | A320/M-SDE3FGHIRWY/LB1 |
Departure
| Time | 2026-05-08 10:34 |
|---|---|
| Airport | Singapore Changi Airport (WSSS) |
Arrival
| Time | 2026-05-08 11:36 |
|---|---|
| Airport | Penang International Airport (WMKP) |
| Time | Latitude | Longitude | Altitude | Speed | Heading |
|---|---|---|---|---|---|
| 2026-05-08 10:24 | 1.33985 | 103.98552 | 30 ft | 0 kts | 293° |
| 2026-05-08 10:29 | 1.33978 | 103.98567 | 30 ft | 2 kts | 293° |
| 2026-05-08 10:30 | 1.33975 | 103.98575 | 30 ft | 2 kts | 300° |
| 2026-05-08 10:30 | 1.33967 | 103.98590 | 30 ft | 2 kts | 269° |
| 2026-05-08 10:30 | 1.33972 | 103.98605 | 30 ft | 0 kts | 201° |
| 2026-05-08 10:30 | 1.33967 | 103.98603 | 30 ft | 5 kts | 202° |
| 2026-05-08 10:31 | 1.33885 | 103.98568 | 30 ft | 20 kts | 205° |
| 2026-05-08 10:31 | 1.33728 | 103.98495 | 30 ft | 20 kts | 202° |
| 2026-05-08 10:31 | 1.33644 | 103.98517 | 30 ft | 14 kts | 119° |
| 2026-05-08 10:31 | 1.33592 | 103.98596 | 30 ft | 14 kts | 163° |
| 2026-05-08 10:32 | 1.33509 | 103.98565 | 30 ft | 12 kts | 205° |
| 2026-05-08 10:32 | 1.33433 | 103.98532 | 30 ft | 13 kts | 201° |
| 2026-05-08 10:32 | 1.33292 | 103.98478 | 31 ft | 29 kts | 202° |
| 2026-05-08 10:32 | 1.33120 | 103.98404 | 31 ft | 20 kts | 204° |
| 2026-05-08 10:33 | 1.33033 | 103.98466 | 31 ft | 18 kts | 114° |
| 2026-05-08 10:33 | 1.33052 | 103.98571 | 30 ft | 18 kts | 30° |
| 2026-05-08 10:33 | 1.33183 | 103.98626 | 31 ft | 32 kts | 24° |
| 2026-05-08 10:33 | 1.33647 | 103.98821 | 31 ft | 109 kts | 23° |
| 2026-05-08 10:34 | 1.34513 | 103.99189 | 32 ft | 163 kts | 23° |
| 2026-05-08 10:34 | 1.35590 | 103.99659 | 648 ft | 167 kts | 24° |
| 2026-05-08 10:34 | 1.36657 | 104.00134 | 1372 ft | 171 kts | 23° |
| 2026-05-08 10:34 | 1.37830 | 104.00645 | 1802 ft | 196 kts | 22° |
| 2026-05-08 10:35 | 1.39159 | 104.01195 | 2234 ft | 220 kts | 21° |
| 2026-05-08 10:35 | 1.40655 | 104.01814 | 2754 ft | 244 kts | 22° |
| 2026-05-08 10:35 | 1.42284 | 104.02507 | 3325 ft | 267 kts | 22° |
| 2026-05-08 10:35 | 1.44046 | 104.03249 | 4116 ft | 277 kts | 22° |
| 2026-05-08 10:36 | 1.45833 | 104.03992 | 5146 ft | 279 kts | 21° |
| 2026-05-08 10:36 | 1.47686 | 104.04619 | 6020 ft | 285 kts | 9° |
| 2026-05-08 10:36 | 1.49671 | 104.04694 | 6888 ft | 287 kts | 352° |
| 2026-05-08 10:36 | 1.51601 | 104.04188 | 7799 ft | 287 kts | 335° |
| 2026-05-08 10:37 | 1.53358 | 104.03264 | 8782 ft | 286 kts | 330° |
| 2026-05-08 10:37 | 1.55106 | 104.02304 | 9550 ft | 294 kts | 330° |
| 2026-05-08 10:37 | 1.56917 | 104.01307 | 10232 ft | 304 kts | 330° |
| 2026-05-08 10:37 | 1.58841 | 104.00254 | 10533 ft | 326 kts | 331° |
| 2026-05-08 10:38 | 1.60874 | 103.99150 | 11111 ft | 337 kts | 332° |
| 2026-05-08 10:38 | 1.62957 | 103.98025 | 11831 ft | 342 kts | 332° |
| 2026-05-08 10:38 | 1.65069 | 103.96886 | 12558 ft | 347 kts | 332° |
| 2026-05-08 10:38 | 1.67207 | 103.95733 | 13317 ft | 351 kts | 332° |
| 2026-05-08 10:39 | 1.69374 | 103.94563 | 14009 ft | 355 kts | 332° |
| 2026-05-08 10:39 | 1.71559 | 103.93383 | 14642 ft | 359 kts | 332° |
| 2026-05-08 10:39 | 1.73765 | 103.92182 | 15265 ft | 363 kts | 330° |
| 2026-05-08 10:39 | 1.75787 | 103.90698 | 15854 ft | 368 kts | 318° |
| 2026-05-08 10:40 | 1.77506 | 103.88784 | 16464 ft | 373 kts | 308° |
| 2026-05-08 10:40 | 1.79089 | 103.86717 | 17071 ft | 377 kts | 308° |
| 2026-05-08 10:40 | 1.80698 | 103.84624 | 17682 ft | 381 kts | 308° |
| 2026-05-08 10:40 | 1.82323 | 103.82514 | 18259 ft | 385 kts | 308° |
| 2026-05-08 10:41 | 1.83965 | 103.80383 | 18780 ft | 388 kts | 308° |
| 2026-05-08 10:41 | 1.85624 | 103.78233 | 19300 ft | 391 kts | 309° |
| 2026-05-08 10:41 | 1.87295 | 103.76067 | 19795 ft | 395 kts | 309° |
| 2026-05-08 10:41 | 1.88986 | 103.73881 | 20309 ft | 399 kts | 309° |
| 2026-05-08 10:42 | 1.90684 | 103.71683 | 20811 ft | 402 kts | 309° |
| 2026-05-08 10:42 | 1.92396 | 103.69459 | 21320 ft | 405 kts | 309° |
| 2026-05-08 10:42 | 1.94118 | 103.67217 | 21809 ft | 408 kts | 309° |
| 2026-05-08 10:42 | 1.95831 | 103.64990 | 22288 ft | 411 kts | 309° |
| 2026-05-08 10:43 | 1.97578 | 103.62716 | 22761 ft | 414 kts | 309° |
| 2026-05-08 10:43 | 1.99345 | 103.60421 | 23231 ft | 417 kts | 309° |
| 2026-05-08 10:43 | 2.01124 | 103.58112 | 23652 ft | 420 kts | 309° |
| 2026-05-08 10:43 | 2.02912 | 103.55795 | 24038 ft | 423 kts | 309° |
| 2026-05-08 10:44 | 2.04715 | 103.53459 | 24414 ft | 425 kts | 309° |
| 2026-05-08 10:44 | 2.06526 | 103.51109 | 24790 ft | 428 kts | 309° |
| 2026-05-08 10:44 | 2.08346 | 103.48745 | 25173 ft | 430 kts | 309° |
| 2026-05-08 10:44 | 2.10176 | 103.46364 | 25574 ft | 432 kts | 309° |
| 2026-05-08 10:45 | 2.12013 | 103.43972 | 25946 ft | 435 kts | 309° |
| 2026-05-08 10:45 | 2.13741 | 103.41530 | 26303 ft | 438 kts | 302° |
| 2026-05-08 10:45 | 2.15083 | 103.38782 | 26664 ft | 442 kts | 291° |
| 2026-05-08 10:45 | 2.16007 | 103.35841 | 27012 ft | 445 kts | 287° |
| 2026-05-08 10:46 | 2.16875 | 103.32853 | 27352 ft | 448 kts | 287° |
| 2026-05-08 10:46 | 2.17753 | 103.29841 | 27548 ft | 454 kts | 287° |
| 2026-05-08 10:46 | 2.18639 | 103.26809 | 27993 ft | 454 kts | 287° |
| 2026-05-08 10:46 | 2.19527 | 103.23778 | 28367 ft | 455 kts | 287° |
| 2026-05-08 10:47 | 2.20421 | 103.20731 | 28716 ft | 457 kts | 287° |
| 2026-05-08 10:47 | 2.21306 | 103.17711 | 29042 ft | 459 kts | 287° |
| 2026-05-08 10:47 | 2.22207 | 103.14636 | 29375 ft | 462 kts | 287° |
| 2026-05-08 10:47 | 2.23115 | 103.11543 | 29725 ft | 464 kts | 287° |
| 2026-05-08 10:48 | 2.24028 | 103.08434 | 30002 ft | 467 kts | 287° |
| 2026-05-08 10:48 | 2.24946 | 103.05300 | 30249 ft | 470 kts | 287° |
| 2026-05-08 10:48 | 2.25866 | 103.02158 | 30528 ft | 472 kts | 287° |
| 2026-05-08 10:48 | 2.26787 | 102.98997 | 30798 ft | 474 kts | 287° |
| 2026-05-08 10:49 | 2.27820 | 102.95868 | 31058 ft | 474 kts | 295° |
| 2026-05-08 10:49 | 2.29392 | 102.92972 | 31311 ft | 475 kts | 301° |
| 2026-05-08 10:49 | 2.31037 | 102.90146 | 31580 ft | 476 kts | 301° |
| 2026-05-08 10:49 | 2.32711 | 102.87288 | 31955 ft | 475 kts | 301° |
| 2026-05-08 10:50 | 2.34388 | 102.84435 | 32339 ft | 474 kts | 301° |
| 2026-05-08 10:50 | 2.36057 | 102.81594 | 32707 ft | 473 kts | 301° |
| 2026-05-08 10:50 | 2.37719 | 102.78755 | 33083 ft | 472 kts | 301° |
| 2026-05-08 10:50 | 2.39374 | 102.75923 | 33457 ft | 471 kts | 301° |
| 2026-05-08 10:51 | 2.41006 | 102.73128 | 33824 ft | 471 kts | 301° |
| 2026-05-08 10:51 | 2.42654 | 102.70306 | 34136 ft | 470 kts | 301° |
| 2026-05-08 10:51 | 2.44321 | 102.67450 | 34455 ft | 469 kts | 301° |
| 2026-05-08 10:51 | 2.45943 | 102.64670 | 34765 ft | 468 kts | 301° |
| 2026-05-08 10:52 | 2.47583 | 102.61860 | 35076 ft | 467 kts | 301° |
| 2026-05-08 10:52 | 2.49220 | 102.59054 | 35385 ft | 466 kts | 301° |
| 2026-05-08 10:52 | 2.50852 | 102.56261 | 35675 ft | 465 kts | 301° |
| 2026-05-08 10:52 | 2.52485 | 102.53469 | 35974 ft | 464 kts | 301° |
| 2026-05-08 10:53 | 2.54112 | 102.50685 | 36257 ft | 463 kts | 301° |
| 2026-05-08 10:53 | 2.55734 | 102.47904 | 36546 ft | 462 kts | 301° |
| 2026-05-08 10:53 | 2.57357 | 102.45126 | 36828 ft | 462 kts | 301° |
| 2026-05-08 10:53 | 2.58976 | 102.42355 | 37105 ft | 461 kts | 301° |
| 2026-05-08 10:54 | 2.60592 | 102.39589 | 37399 ft | 460 kts | 301° |
| 2026-05-08 10:54 | 2.62178 | 102.36865 | 37710 ft | 457 kts | 301° |
| 2026-05-08 10:54 | 2.63782 | 102.34113 | 37829 ft | 456 kts | 302° |
| 2026-05-08 10:55 | 2.66972 | 102.28652 | 37844 ft | 454 kts | 302° |
| 2026-05-08 10:55 | 2.70153 | 102.23209 | 37838 ft | 453 kts | 302° |
| 2026-05-08 10:56 | 2.73334 | 102.17762 | 37836 ft | 453 kts | 301° |
| 2026-05-08 10:56 | 2.76508 | 102.12321 | 37835 ft | 453 kts | 302° |
| 2026-05-08 10:57 | 2.79681 | 102.06879 | 37837 ft | 453 kts | 301° |
| 2026-05-08 10:57 | 2.84437 | 101.98718 | 37835 ft | 453 kts | 302° |
| 2026-05-08 10:58 | 2.87625 | 101.93265 | 37836 ft | 454 kts | 302° |
| 2026-05-08 10:58 | 2.90783 | 101.87843 | 37843 ft | 454 kts | 301° |
| 2026-05-08 10:59 | 2.93963 | 101.82383 | 37845 ft | 454 kts | 302° |
| 2026-05-08 10:59 | 2.97144 | 101.76929 | 37845 ft | 454 kts | 301° |
| 2026-05-08 11:00 | 3.00324 | 101.71471 | 37844 ft | 454 kts | 302° |
| 2026-05-08 11:00 | 3.03510 | 101.66016 | 37840 ft | 454 kts | 302° |
| 2026-05-08 11:01 | 3.06681 | 101.60582 | 37834 ft | 455 kts | 302° |
| 2026-05-08 11:01 | 3.09869 | 101.55103 | 37835 ft | 456 kts | 302° |
| 2026-05-08 11:02 | 3.14662 | 101.46876 | 37837 ft | 456 kts | 302° |
| 2026-05-08 11:03 | 3.17857 | 101.41392 | 37842 ft | 456 kts | 302° |
| 2026-05-08 11:03 | 3.21051 | 101.35907 | 37847 ft | 456 kts | 302° |
| 2026-05-08 11:04 | 3.24247 | 101.30424 | 37855 ft | 456 kts | 302° |
| 2026-05-08 11:04 | 3.27429 | 101.24958 | 37858 ft | 456 kts | 302° |
| 2026-05-08 11:05 | 3.30623 | 101.19462 | 37860 ft | 456 kts | 302° |
| 2026-05-08 11:05 | 3.34244 | 101.14301 | 37857 ft | 452 kts | 316° |
| 2026-05-08 11:05 | 3.36604 | 101.12247 | 37855 ft | 449 kts | 327° |
| 2026-05-08 11:06 | 3.39268 | 101.10636 | 37866 ft | 445 kts | 336° |
| 2026-05-08 11:06 | 3.44909 | 101.08119 | 37863 ft | 444 kts | 338° |
| 2026-05-08 11:07 | 3.50535 | 101.05588 | 37861 ft | 443 kts | 338° |
| 2026-05-08 11:07 | 3.56123 | 101.03073 | 37858 ft | 443 kts | 338° |
| 2026-05-08 11:08 | 3.61754 | 101.00545 | 37856 ft | 443 kts | 338° |
| 2026-05-08 11:08 | 3.67382 | 100.98014 | 37856 ft | 443 kts | 338° |
| 2026-05-08 11:09 | 3.73013 | 100.95502 | 37857 ft | 443 kts | 338° |
| 2026-05-08 11:09 | 3.78651 | 100.93001 | 37851 ft | 443 kts | 338° |
| 2026-05-08 11:10 | 3.84296 | 100.90498 | 37854 ft | 443 kts | 338° |
| 2026-05-08 11:10 | 3.89937 | 100.87995 | 37853 ft | 443 kts | 338° |
| 2026-05-08 11:11 | 3.95576 | 100.85476 | 37851 ft | 443 kts | 338° |
| 2026-05-08 11:11 | 4.01213 | 100.82963 | 37850 ft | 443 kts | 338° |
| 2026-05-08 11:12 | 4.06852 | 100.80455 | 37787 ft | 444 kts | 338° |
| 2026-05-08 11:12 | 4.09705 | 100.79183 | 37194 ft | 450 kts | 338° |
| 2026-05-08 11:12 | 4.12565 | 100.77899 | 36673 ft | 451 kts | 338° |
| 2026-05-08 11:12 | 4.14455 | 100.77040 | 36318 ft | 449 kts | 338° |
| 2026-05-08 11:13 | 4.17295 | 100.75742 | 35791 ft | 448 kts | 338° |
| 2026-05-08 11:13 | 4.21035 | 100.74028 | 35115 ft | 444 kts | 338° |
| 2026-05-08 11:13 | 4.23835 | 100.72741 | 34606 ft | 442 kts | 338° |
| 2026-05-08 11:13 | 4.26623 | 100.71456 | 34111 ft | 439 kts | 338° |
| 2026-05-08 11:14 | 4.28495 | 100.70592 | 33776 ft | 437 kts | 338° |
| 2026-05-08 11:14 | 4.31254 | 100.69317 | 33200 ft | 435 kts | 338° |
| 2026-05-08 11:14 | 4.33956 | 100.68069 | 32678 ft | 433 kts | 338° |
| 2026-05-08 11:14 | 4.36681 | 100.66809 | 32143 ft | 430 kts | 338° |
| 2026-05-08 11:15 | 4.39392 | 100.65555 | 31624 ft | 428 kts | 338° |
| 2026-05-08 11:15 | 4.42089 | 100.64306 | 31109 ft | 426 kts | 338° |
| 2026-05-08 11:15 | 4.44772 | 100.63064 | 30599 ft | 423 kts | 338° |
| 2026-05-08 11:15 | 4.47436 | 100.61830 | 30104 ft | 421 kts | 338° |
| 2026-05-08 11:16 | 4.50090 | 100.60600 | 29556 ft | 419 kts | 338° |
| 2026-05-08 11:16 | 4.52732 | 100.59377 | 28979 ft | 416 kts | 338° |
| 2026-05-08 11:16 | 4.55354 | 100.58164 | 28415 ft | 414 kts | 338° |
| 2026-05-08 11:16 | 4.57962 | 100.56958 | 27873 ft | 411 kts | 338° |
| 2026-05-08 11:17 | 4.60525 | 100.55774 | 27324 ft | 409 kts | 338° |
| 2026-05-08 11:17 | 4.63109 | 100.54581 | 26800 ft | 407 kts | 338° |
| 2026-05-08 11:17 | 4.65724 | 100.53539 | 26275 ft | 401 kts | 349° |
| 2026-05-08 11:17 | 4.68470 | 100.53193 | 25766 ft | 395 kts | 359° |
| 2026-05-08 11:18 | 4.71207 | 100.53037 | 25263 ft | 393 kts | 359° |
| 2026-05-08 11:18 | 4.73930 | 100.52893 | 24769 ft | 391 kts | 359° |
| 2026-05-08 11:18 | 4.76638 | 100.52750 | 24316 ft | 388 kts | 359° |
| 2026-05-08 11:18 | 4.79292 | 100.52609 | 23879 ft | 385 kts | 359° |
| 2026-05-08 11:19 | 4.81954 | 100.52467 | 23454 ft | 382 kts | 359° |
| 2026-05-08 11:19 | 4.84597 | 100.52325 | 22949 ft | 379 kts | 359° |
| 2026-05-08 11:19 | 4.87229 | 100.52184 | 22440 ft | 377 kts | 359° |
| 2026-05-08 11:19 | 4.89841 | 100.52046 | 21939 ft | 375 kts | 359° |
| 2026-05-08 11:20 | 4.92446 | 100.51910 | 21448 ft | 374 kts | 359° |
| 2026-05-08 11:20 | 4.95040 | 100.51777 | 20957 ft | 372 kts | 359° |
| 2026-05-08 11:20 | 4.97624 | 100.51692 | 20478 ft | 369 kts | 6° |
| 2026-05-08 11:20 | 5.00114 | 100.52189 | 20012 ft | 364 kts | 18° |
| 2026-05-08 11:21 | 5.02535 | 100.52920 | 19549 ft | 362 kts | 19° |
| 2026-05-08 11:21 | 5.04940 | 100.53664 | 19094 ft | 361 kts | 19° |
| 2026-05-08 11:21 | 5.07333 | 100.54407 | 18650 ft | 360 kts | 19° |
| 2026-05-08 11:21 | 5.09721 | 100.55151 | 18198 ft | 359 kts | 19° |
| 2026-05-08 11:22 | 5.12071 | 100.55884 | 17713 ft | 357 kts | 19° |
| 2026-05-08 11:22 | 5.14439 | 100.56626 | 17203 ft | 356 kts | 19° |
| 2026-05-08 11:22 | 5.16805 | 100.57370 | 16726 ft | 356 kts | 19° |
| 2026-05-08 11:22 | 5.19164 | 100.58115 | 16240 ft | 355 kts | 19° |
| 2026-05-08 11:23 | 5.21486 | 100.58850 | 15752 ft | 344 kts | 19° |
| 2026-05-08 11:23 | 5.23727 | 100.59558 | 15282 ft | 332 kts | 19° |
| 2026-05-08 11:23 | 5.25898 | 100.60247 | 14810 ft | 322 kts | 19° |
| 2026-05-08 11:23 | 5.28005 | 100.60922 | 14353 ft | 313 kts | 19° |
| 2026-05-08 11:24 | 5.30061 | 100.61582 | 13894 ft | 306 kts | 19° |
| 2026-05-08 11:24 | 5.32068 | 100.62228 | 13424 ft | 299 kts | 19° |
| 2026-05-08 11:24 | 5.34026 | 100.62861 | 12922 ft | 292 kts | 19° |
| 2026-05-08 11:24 | 5.35941 | 100.63482 | 12425 ft | 287 kts | 19° |
| 2026-05-08 11:25 | 5.37822 | 100.64097 | 11937 ft | 282 kts | 19° |
| 2026-05-08 11:25 | 5.39674 | 100.64705 | 11443 ft | 276 kts | 19° |
| 2026-05-08 11:25 | 5.41462 | 100.65288 | 10975 ft | 272 kts | 17° |
| 2026-05-08 11:25 | 5.43320 | 100.65410 | 10504 ft | 269 kts | 350° |
| 2026-05-08 11:26 | 5.45006 | 100.64651 | 10050 ft | 267 kts | 324° |
| 2026-05-08 11:26 | 5.46430 | 100.63479 | 9584 ft | 263 kts | 320° |
| 2026-05-08 11:26 | 5.47797 | 100.62273 | 9081 ft | 260 kts | 320° |
| 2026-05-08 11:26 | 5.49142 | 100.61071 | 8587 ft | 256 kts | 320° |
| 2026-05-08 11:27 | 5.50460 | 100.59883 | 8090 ft | 253 kts | 319° |
| 2026-05-08 11:27 | 5.51772 | 100.58714 | 7626 ft | 250 kts | 319° |
| 2026-05-08 11:27 | 5.53073 | 100.57564 | 7141 ft | 248 kts | 319° |
| 2026-05-08 11:27 | 5.54271 | 100.56336 | 6666 ft | 246 kts | 302° |
| 2026-05-08 11:28 | 5.54785 | 100.54730 | 6203 ft | 244 kts | 271° |
| 2026-05-08 11:28 | 5.54477 | 100.53079 | 5724 ft | 242 kts | 252° |
| 2026-05-08 11:28 | 5.53919 | 100.51526 | 5386 ft | 235 kts | 250° |
| 2026-05-08 11:28 | 5.53342 | 100.50035 | 5123 ft | 224 kts | 247° |
| 2026-05-08 11:29 | 5.52465 | 100.48784 | 4849 ft | 217 kts | 225° |
| 2026-05-08 11:29 | 5.51409 | 100.47750 | 4603 ft | 210 kts | 226° |
| 2026-05-08 11:29 | 5.50375 | 100.46735 | 4334 ft | 206 kts | 225° |
| 2026-05-08 11:29 | 5.49350 | 100.45727 | 4071 ft | 207 kts | 225° |
| 2026-05-08 11:30 | 5.48320 | 100.44716 | 3800 ft | 207 kts | 226° |
| 2026-05-08 11:30 | 5.47285 | 100.43703 | 3540 ft | 208 kts | 225° |
| 2026-05-08 11:30 | 5.46236 | 100.42702 | 3331 ft | 207 kts | 224° |
| 2026-05-08 11:30 | 5.45185 | 100.41735 | 3169 ft | 204 kts | 223° |
| 2026-05-08 11:31 | 5.44145 | 100.40788 | 3002 ft | 200 kts | 223° |
| 2026-05-08 11:31 | 5.43113 | 100.39849 | 2829 ft | 200 kts | 223° |
| 2026-05-08 11:31 | 5.42088 | 100.38913 | 2662 ft | 197 kts | 223° |
| 2026-05-08 11:31 | 5.41085 | 100.37995 | 2486 ft | 191 kts | 223° |
| 2026-05-08 11:32 | 5.40115 | 100.37111 | 2326 ft | 187 kts | 222° |
| 2026-05-08 11:32 | 5.39153 | 100.36242 | 2095 ft | 185 kts | 222° |
| 2026-05-08 11:32 | 5.38228 | 100.35408 | 1864 ft | 172 kts | 223° |
| 2026-05-08 11:32 | 5.37368 | 100.34632 | 1656 ft | 161 kts | 222° |
| 2026-05-08 11:33 | 5.36561 | 100.33901 | 1465 ft | 151 kts | 223° |
| 2026-05-08 11:33 | 5.35804 | 100.33215 | 1286 ft | 143 kts | 222° |
| 2026-05-08 11:33 | 5.35072 | 100.32552 | 1130 ft | 140 kts | 222° |
| 2026-05-08 11:33 | 5.34357 | 100.31905 | 964 ft | 139 kts | 222° |
| 2026-05-08 11:34 | 5.33634 | 100.31249 | 793 ft | 142 kts | 222° |
| 2026-05-08 11:34 | 5.32909 | 100.30589 | 589 ft | 139 kts | 224° |
| 2026-05-08 11:34 | 5.32207 | 100.29940 | 446 ft | 138 kts | 222° |
| 2026-05-08 11:34 | 5.31496 | 100.29303 | 265 ft | 135 kts | 224° |
| 2026-05-08 11:35 | 5.30798 | 100.28665 | 55 ft | 135 kts | 223° |
| 2026-05-08 11:35 | 5.30159 | 100.28086 | 27 ft | 101 kts | 221° |
| 2026-05-08 11:35 | 5.29750 | 100.27715 | 24 ft | 66 kts | 222° |
| 2026-05-08 11:35 | 5.29443 | 100.27436 | 23 ft | 55 kts | 222° |
| 2026-05-08 11:36 | 5.29181 | 100.27198 | 25 ft | 41 kts | 221° |
| 2026-05-08 11:36 | 5.29054 | 100.27067 | 27 ft | 11 kts | 272° |
| 2026-05-08 11:36 | 5.29107 | 100.27001 | 27 ft | 14 kts | 310° |
| 2026-05-08 11:36 | 5.29190 | 100.26907 | 23 ft | 23 kts | 312° |
| 2026-05-08 11:37 | 5.29275 | 100.26811 | 23 ft | 17 kts | 311° |
| 2026-05-08 11:37 | 5.29323 | 100.26757 | 23 ft | 0 kts | 311° |
| 2026-05-08 11:37 | 5.29325 | 100.26755 | 23 ft | 0 kts | 313° |